createdAt,value
2022-10-19T00:02:13.553Z,5.01
2022-10-19T00:04:41.327Z,4.95
2022-10-19T00:07:09.041Z,5.04
2022-10-19T00:09:36.778Z,4.93
2022-10-19T00:12:06.213Z,4.91
2022-10-19T00:14:33.926Z,4.84
2022-10-19T00:17:01.730Z,4.79
2022-10-19T00:19:29.708Z,4.80
2022-10-19T00:21:57.458Z,4.81
2022-10-19T00:24:25.355Z,4.79
2022-10-19T00:26:53.104Z,4.83
2022-10-19T00:29:22.204Z,4.73
2022-10-19T00:31:50.648Z,4.55
2022-10-19T00:34:18.727Z,4.72
2022-10-19T00:36:46.581Z,4.73
2022-10-19T00:39:16.339Z,4.67
2022-10-19T00:41:45.937Z,4.65
2022-10-19T00:44:50.867Z,4.60
2022-10-19T00:47:24.443Z,4.56
2022-10-19T00:49:53.332Z,4.48
2022-10-19T00:52:23.104Z,4.50
2022-10-19T00:54:53.691Z,4.41
2022-10-19T00:57:22.094Z,4.47
2022-10-19T00:59:50.707Z,4.44
2022-10-19T01:02:19.787Z,4.40
2022-10-19T01:04:51.751Z,4.30
2022-10-19T01:07:20.309Z,4.30
2022-10-19T01:09:48.006Z,4.27
2022-10-19T01:12:32.425Z,4.25
2022-10-19T01:15:12.888Z,4.24
2022-10-19T01:17:51.920Z,4.25
2022-10-19T01:20:50.799Z,4.19
2022-10-19T01:23:54.186Z,4.15
2022-10-19T01:26:42.129Z,4.05
2022-10-19T01:29:18.494Z,4.13
2022-10-19T01:31:52.060Z,4.11
2022-10-19T01:34:26.645Z,4.07
2022-10-19T01:37:01.807Z,4.06
2022-10-19T01:39:36.382Z,3.77
2022-10-19T01:42:11.092Z,4.12
2022-10-19T01:44:44.774Z,4.06
2022-10-19T01:47:19.896Z,4.03
2022-10-19T01:49:52.144Z,3.77
2022-10-19T01:52:22.914Z,4.02
2022-10-19T01:54:52.916Z,4.01
2022-10-19T01:57:27.527Z,4.00
2022-10-19T01:59:56.809Z,3.97
2022-10-19T02:02:28.089Z,3.92
2022-10-19T02:04:58.699Z,3.98
2022-10-19T02:07:27.025Z,3.94
2022-10-19T02:09:54.714Z,3.93
2022-10-19T02:12:23.684Z,3.87
2022-10-19T02:14:57.580Z,3.66
2022-10-19T02:17:29.965Z,3.58
2022-10-19T02:19:59.105Z,3.81
2022-10-19T02:22:26.750Z,3.85
2022-10-19T02:24:54.588Z,3.81
2022-10-19T02:27:22.873Z,3.76
2022-10-19T02:29:50.893Z,3.77
2022-10-19T02:32:18.764Z,3.67
2022-10-19T02:34:47.927Z,3.46
2022-10-19T02:37:15.784Z,3.65
2022-10-19T02:39:43.718Z,3.65
2022-10-19T02:42:15.952Z,3.64
2022-10-19T02:44:49.665Z,3.61
2022-10-19T02:47:22.056Z,3.55
2022-10-19T02:49:53.006Z,3.70
2022-10-19T02:52:20.934Z,3.73
2022-10-19T02:54:49.132Z,3.70
2022-10-19T02:57:19.552Z,3.74
2022-10-19T02:59:47.881Z,3.72
2022-10-19T03:02:16.612Z,3.66
2022-10-19T03:04:44.718Z,3.63
2022-10-19T03:07:15.705Z,3.57
2022-10-19T03:09:43.631Z,3.45
2022-10-19T03:12:11.903Z,3.46
2022-10-19T03:14:39.684Z,3.39
2022-10-19T03:17:07.625Z,3.39
2022-10-19T03:19:36.401Z,3.33
2022-10-19T03:22:05.029Z,3.35
2022-10-19T03:24:34.404Z,3.36
2022-10-19T03:27:02.054Z,3.37
2022-10-19T03:29:29.850Z,3.26
2022-10-19T03:31:57.592Z,3.28
2022-10-19T03:34:25.351Z,3.34
2022-10-19T03:36:53.516Z,3.31
2022-10-19T03:39:21.255Z,3.34
2022-10-19T03:41:50.472Z,3.18
2022-10-19T03:44:18.251Z,3.11
2022-10-19T03:46:46.026Z,3.25
2022-10-19T03:49:13.768Z,2.95
2022-10-19T03:51:41.505Z,3.21
2022-10-19T03:54:13.107Z,3.26
2022-10-19T03:56:40.798Z,3.22
2022-10-19T03:59:14.143Z,3.05
2022-10-19T04:01:43.740Z,3.14
2022-10-19T04:04:14.764Z,3.24
2022-10-19T04:06:44.908Z,3.19
2022-10-19T04:09:14.939Z,3.23
2022-10-19T04:11:43.293Z,3.25
2022-10-19T04:14:19.237Z,3.25
2022-10-19T04:16:54.922Z,3.11
2022-10-19T04:19:22.560Z,3.18
2022-10-19T04:21:50.925Z,3.08
2022-10-19T04:24:19.952Z,3.22
2022-10-19T04:26:49.049Z,3.22
2022-10-19T04:29:20.128Z,3.23
2022-10-19T04:31:50.013Z,3.23
2022-10-19T04:34:18.847Z,3.23
2022-10-19T04:36:46.559Z,3.25
2022-10-19T04:39:14.288Z,3.26
2022-10-19T04:41:42.062Z,3.23
2022-10-19T04:44:10.733Z,3.28
2022-10-19T04:46:39.805Z,3.58
2022-10-19T04:49:07.703Z,3.88
2022-10-19T04:51:35.627Z,4.05
2022-10-19T04:54:04.035Z,4.25
2022-10-19T04:56:32.349Z,4.43
2022-10-19T04:59:01.576Z,4.52
2022-10-19T05:01:31.709Z,4.67
2022-10-19T05:04:02.596Z,4.51
2022-10-19T05:06:31.094Z,4.74
2022-10-19T05:08:59.116Z,4.80
2022-10-19T05:11:27.304Z,4.83
2022-10-19T05:13:55.136Z,4.92
2022-10-19T05:16:24.535Z,4.91
2022-10-19T05:18:56.107Z,4.96
2022-10-19T05:21:27.120Z,4.99
2022-10-19T05:23:56.028Z,5.03
2022-10-19T05:26:25.213Z,5.00
2022-10-19T05:28:56.845Z,4.95
2022-10-19T05:31:26.423Z,5.03
2022-10-19T05:33:56.096Z,4.98
2022-10-19T05:36:27.462Z,4.99
2022-10-19T05:38:57.344Z,5.09
2022-10-19T05:41:26.345Z,5.12
2022-10-19T05:43:55.138Z,5.01
2022-10-19T05:46:23.120Z,5.14
2022-10-19T05:48:50.816Z,5.15
2022-10-19T05:51:21.054Z,5.11
2022-10-19T05:53:50.528Z,5.06
2022-10-19T05:56:20.387Z,4.96
2022-10-19T05:58:48.616Z,5.01
2022-10-19T06:01:18.912Z,4.95
2022-10-19T06:03:46.986Z,4.98
2022-10-19T06:06:14.787Z,4.75
2022-10-19T06:08:42.563Z,4.78
2022-10-19T06:11:13.739Z,4.61
2022-10-19T06:13:42.244Z,4.61
2022-10-19T06:16:11.834Z,4.55
2022-10-19T06:18:39.530Z,4.60
2022-10-19T06:21:09.332Z,4.58
2022-10-19T06:23:37.474Z,4.53
2022-10-19T06:26:08.231Z,4.58
2022-10-19T06:28:38.400Z,4.54
2022-10-19T06:31:08.565Z,4.43
2022-10-19T06:33:37.495Z,4.44
2022-10-19T06:36:08.752Z,4.32
2022-10-19T06:38:36.468Z,4.34
2022-10-19T06:41:04.943Z,4.28
2022-10-19T06:43:32.827Z,4.30
2022-10-19T06:46:05.223Z,4.29
2022-10-19T06:48:33.031Z,4.24
2022-10-19T06:51:01.879Z,4.23
2022-10-19T06:53:30.299Z,4.25
2022-10-19T06:55:59.431Z,4.27
2022-10-19T06:58:27.338Z,4.16
2022-10-19T07:00:58.621Z,4.24
2022-10-19T07:03:29.289Z,4.28
2022-10-19T07:05:58.388Z,4.46
2022-10-19T07:08:27.287Z,4.53
2022-10-19T07:10:56.403Z,4.66
2022-10-19T07:13:24.572Z,4.72
2022-10-19T07:15:58.388Z,4.78
2022-10-19T07:18:27.800Z,4.99
2022-10-19T07:20:56.592Z,5.12
2022-10-19T07:23:25.200Z,5.44
2022-10-19T07:25:53.930Z,5.54
2022-10-19T07:28:22.579Z,5.93
2022-10-19T07:30:50.279Z,6.16
2022-10-19T07:35:46.939Z,6.66
2022-10-19T07:38:14.584Z,6.93
2022-10-19T07:40:44.927Z,7.12
2022-10-19T07:43:15.874Z,7.22
2022-10-19T07:45:43.598Z,7.54
2022-10-19T07:48:11.418Z,7.71
2022-10-19T07:50:39.267Z,7.84
2022-10-19T07:53:08.445Z,7.80
2022-10-19T07:55:36.187Z,8.09
2022-10-19T07:58:03.850Z,8.09
2022-10-19T08:00:31.705Z,8.30
2022-10-19T08:03:43.238Z,8.41
2022-10-19T08:05:47.314Z,8.53
2022-10-19T08:08:16.399Z,8.58
2022-10-19T08:10:44.261Z,8.67
2022-10-19T08:13:12.047Z,8.86
2022-10-19T08:15:39.808Z,8.98
2022-10-19T08:18:07.526Z,9.12
2022-10-19T08:20:35.369Z,9.29
2022-10-19T08:23:03.210Z,9.45
2022-10-19T08:25:32.344Z,9.53
2022-10-19T08:27:59.980Z,9.70
2022-10-19T08:30:27.845Z,9.81
2022-10-19T08:32:55.670Z,9.98
2022-10-19T08:35:23.542Z,10.16
2022-10-19T08:37:51.700Z,10.28
2022-10-19T08:40:24.828Z,10.27
2022-10-19T08:42:59.223Z,10.48
2022-10-19T08:48:23.600Z,10.84
2022-10-19T08:50:51.400Z,11.10
2022-10-19T08:53:25.385Z,11.23
2022-10-19T08:56:05.401Z,11.31
2022-10-19T08:58:54.657Z,11.45
2022-10-19T09:01:37.550Z,11.53
2022-10-19T09:04:11.383Z,11.65
2022-10-19T09:06:49.876Z,11.75
2022-10-19T09:09:20.985Z,11.75
2022-10-19T09:11:52.295Z,11.66
2022-10-19T09:14:27.063Z,11.77
2022-10-19T09:16:57.934Z,11.97
2022-10-19T09:19:30.852Z,12.06
2022-10-19T09:22:03.047Z,12.12
2022-10-19T09:24:37.150Z,12.31
2022-10-19T09:27:07.006Z,12.31
2022-10-19T09:29:42.521Z,12.35
2022-10-19T09:32:15.648Z,12.47
2022-10-19T09:34:47.528Z,12.54
2022-10-19T09:37:23.226Z,12.60
2022-10-19T09:39:54.858Z,12.54
2022-10-19T09:42:25.850Z,12.70
2022-10-19T09:44:56.432Z,12.73
2022-10-19T09:47:35.257Z,12.82
2022-10-19T09:50:19.040Z,12.98
2022-10-19T09:52:47.908Z,13.13
2022-10-19T09:55:27.484Z,13.29
2022-10-19T09:58:02.368Z,13.35
2022-10-19T10:00:37.127Z,13.47
2022-10-19T10:03:06.077Z,13.12
2022-10-19T10:05:35.974Z,13.31
2022-10-19T10:08:04.079Z,13.47
2022-10-19T10:10:38.490Z,13.38
2022-10-19T10:13:07.086Z,13.59
2022-10-19T10:15:44.930Z,13.30
2022-10-19T10:18:16.590Z,13.48
2022-10-19T10:20:58.474Z,13.46
2022-10-19T10:23:28.346Z,13.57
2022-10-19T10:25:57.943Z,13.55
2022-10-19T10:28:27.570Z,13.69
2022-10-19T10:31:02.233Z,13.73
2022-10-19T10:33:46.094Z,13.74
2022-10-19T10:36:14.311Z,13.82
2022-10-19T10:38:46.015Z,13.98
2022-10-19T10:41:17.661Z,13.87
2022-10-19T10:43:53.524Z,13.89
2022-10-19T10:46:28.241Z,14.00
2022-10-19T10:48:59.313Z,14.13
2022-10-19T10:51:34.257Z,14.19
2022-10-19T10:54:16.069Z,14.28
2022-10-19T10:56:45.219Z,14.26
2022-10-19T10:59:20.536Z,14.43
2022-10-19T11:02:04.086Z,14.27
2022-10-19T11:04:36.917Z,14.40
2022-10-19T11:07:17.694Z,14.68
2022-10-19T11:09:50.718Z,14.68
2022-10-19T11:12:25.129Z,14.65
2022-10-19T11:14:58.770Z,14.70
2022-10-19T11:17:30.952Z,14.80
2022-10-19T11:19:58.644Z,14.79
2022-10-19T11:22:30.734Z,14.76
2022-10-19T11:25:16.958Z,14.83
2022-10-19T11:27:54.930Z,14.60
2022-10-19T11:30:24.990Z,14.56
2022-10-19T11:33:07.041Z,14.55
2022-10-19T11:35:46.861Z,14.49
2022-10-19T11:38:49.505Z,14.51
2022-10-19T11:41:27.042Z,14.45
2022-10-19T11:44:17.348Z,14.63
2022-10-19T11:46:55.954Z,14.66
2022-10-19T11:49:41.875Z,14.87
2022-10-19T11:52:17.795Z,15.34
2022-10-19T11:54:59.349Z,15.37
2022-10-19T11:57:32.321Z,15.17
2022-10-19T12:00:14.741Z,15.21
2022-10-19T12:03:02.828Z,15.18
2022-10-19T12:05:40.172Z,15.07
2022-10-19T12:08:23.016Z,15.00
2022-10-19T12:11:01.965Z,15.03
2022-10-19T12:13:42.928Z,14.93
2022-10-19T12:16:12.857Z,15.14
2022-10-19T12:18:42.919Z,15.12
2022-10-19T12:21:20.821Z,15.03
2022-10-19T12:23:49.891Z,15.14
2022-10-19T12:26:19.768Z,15.19
2022-10-19T12:28:50.592Z,15.16
2022-10-19T12:31:19.637Z,15.26
2022-10-19T12:33:51.705Z,14.80
2022-10-19T12:36:30.063Z,15.08
2022-10-19T12:39:03.872Z,14.93
2022-10-19T12:41:39.161Z,15.06
2022-10-19T12:44:22.421Z,15.39
2022-10-19T12:46:53.823Z,15.38
2022-10-19T12:49:48.853Z,15.66
2022-10-19T12:52:37.266Z,15.95
2022-10-19T12:55:14.057Z,16.02
2022-10-19T12:57:47.925Z,15.96
2022-10-19T13:00:22.311Z,16.07
2022-10-19T13:02:59.379Z,16.20
2022-10-19T13:05:29.679Z,16.27
2022-10-19T13:08:02.108Z,16.51
2022-10-19T13:10:33.346Z,16.50
2022-10-19T13:13:03.095Z,16.72
2022-10-19T13:15:51.844Z,16.89
2022-10-19T13:19:07.612Z,17.00
2022-10-19T13:21:46.802Z,16.93
2022-10-19T13:24:28.331Z,17.11
2022-10-19T13:27:35.793Z,17.11
2022-10-19T13:30:03.800Z,16.60
2022-10-19T13:32:42.888Z,16.50
2022-10-19T13:35:31.386Z,16.71
2022-10-19T13:38:26.205Z,16.68
2022-10-19T13:41:05.379Z,16.84
2022-10-19T13:43:35.743Z,16.79
2022-10-19T13:46:11.825Z,16.82
2022-10-19T13:49:07.250Z,16.81
2022-10-19T13:51:44.396Z,16.74
2022-10-19T13:54:26.230Z,16.55
2022-10-19T13:57:10.396Z,16.53
2022-10-19T14:00:03.273Z,16.60
2022-10-19T14:02:56.084Z,16.62
2022-10-19T14:05:53.631Z,16.64
2022-10-19T14:08:37.065Z,16.64
2022-10-19T14:11:07.600Z,16.62
2022-10-19T14:13:36.820Z,16.62
2022-10-19T14:16:04.949Z,16.98
2022-10-19T14:18:34.685Z,16.59
2022-10-19T14:21:04.239Z,16.31
2022-10-19T14:23:34.200Z,16.15
2022-10-19T14:26:04.342Z,16.16
2022-10-19T14:28:33.239Z,16.10
2022-10-19T14:31:05.096Z,15.94
2022-10-19T14:33:35.258Z,15.72
2022-10-19T14:36:03.804Z,15.58
2022-10-19T14:38:36.612Z,15.57
2022-10-19T14:41:05.679Z,15.32
2022-10-19T14:43:35.450Z,15.40
2022-10-19T14:46:16.204Z,15.16
2022-10-19T14:48:46.315Z,15.07
2022-10-19T14:51:29.684Z,15.01
2022-10-19T14:54:02.309Z,14.97
2022-10-19T14:56:34.667Z,14.93
2022-10-19T14:59:06.018Z,14.85
2022-10-19T15:01:36.650Z,14.89
2022-10-19T15:04:05.293Z,14.60
2022-10-19T15:06:35.731Z,14.51
2022-10-19T15:09:12.093Z,14.52
2022-10-19T15:11:49.866Z,14.44
2022-10-19T15:14:21.833Z,14.49
2022-10-19T15:16:54.966Z,14.38
2022-10-19T15:19:29.407Z,14.31
2022-10-19T15:22:15.719Z,14.04
2022-10-19T15:24:59.540Z,14.11
2022-10-19T15:27:32.980Z,13.99
2022-10-19T15:30:02.767Z,13.97
2022-10-19T15:32:37.865Z,13.95
2022-10-19T15:35:17.441Z,13.81
2022-10-19T15:37:46.654Z,13.85
2022-10-19T15:40:21.647Z,13.65
2022-10-19T15:42:49.408Z,13.58
2022-10-19T15:45:35.939Z,13.67
2022-10-19T15:48:28.589Z,13.40
2022-10-19T15:50:57.915Z,13.42
2022-10-19T15:53:26.248Z,13.39
2022-10-19T15:55:54.058Z,13.31
2022-10-19T15:58:21.701Z,13.33
2022-10-19T16:00:49.498Z,13.22
2022-10-19T16:03:17.372Z,13.11
2022-10-19T16:05:47.151Z,12.89
2022-10-19T16:08:14.856Z,12.91
2022-10-19T16:10:42.517Z,12.77
2022-10-19T16:13:10.118Z,12.65
2022-10-19T16:15:37.903Z,12.63
2022-10-19T16:18:05.479Z,12.56
2022-10-19T16:20:33.270Z,12.58
2022-10-19T16:23:02.370Z,12.54
2022-10-19T16:25:30.133Z,12.42
2022-10-19T16:27:57.901Z,12.34
2022-10-19T16:30:25.603Z,12.15
2022-10-19T16:32:53.296Z,12.08
2022-10-19T16:35:21.055Z,12.05
2022-10-19T16:37:48.842Z,11.89
2022-10-19T16:40:18.255Z,11.92
2022-10-19T16:42:46.016Z,11.74
2022-10-19T16:45:13.828Z,11.80
2022-10-19T16:47:41.673Z,11.75
2022-10-19T16:50:11.329Z,11.49
2022-10-19T16:52:39.165Z,11.58
2022-10-19T16:55:08.270Z,11.56
2022-10-19T16:57:37.483Z,11.40
2022-10-19T17:00:09.414Z,11.48
2022-10-19T17:02:41.831Z,11.38
2022-10-19T17:05:12.177Z,11.25
2022-10-19T17:07:40.022Z,11.19
2022-10-19T17:10:08.464Z,11.22
2022-10-19T17:12:40.762Z,11.12
2022-10-19T17:15:40.856Z,11.10
2022-10-19T17:17:58.078Z,11.06
2022-10-19T17:20:25.808Z,10.95
2022-10-19T17:22:53.781Z,10.87
2022-10-19T17:25:21.584Z,10.63
2022-10-19T17:27:52.968Z,10.90
2022-10-19T17:30:21.003Z,10.75
2022-10-19T17:32:48.738Z,10.92
2022-10-19T17:35:16.461Z,10.82
2022-10-19T17:37:44.121Z,10.72
2022-10-19T17:40:12.769Z,10.69
2022-10-19T17:42:40.441Z,10.63
2022-10-19T17:45:11.078Z,10.49
2022-10-19T17:47:38.760Z,10.47
2022-10-19T17:50:07.340Z,10.40
2022-10-19T17:52:35.036Z,10.45
2022-10-19T17:55:18.247Z,10.42
2022-10-19T17:57:46.091Z,10.29
2022-10-19T18:00:15.937Z,10.28
2022-10-19T18:02:45.683Z,10.38
2022-10-19T18:05:13.613Z,10.25
2022-10-19T18:07:43.459Z,10.32
2022-10-19T18:10:11.200Z,10.21
2022-10-19T18:12:39.149Z,9.99
2022-10-19T18:15:07.464Z,10.11
2022-10-19T18:17:36.997Z,10.10
2022-10-19T18:20:05.923Z,9.94
2022-10-19T18:22:33.600Z,9.82
2022-10-19T18:25:01.262Z,9.98
2022-10-19T18:27:28.896Z,9.91
2022-10-19T18:29:56.575Z,9.90
2022-10-19T18:32:24.371Z,9.84
2022-10-19T18:34:53.565Z,9.61
2022-10-19T18:37:21.273Z,9.67
2022-10-19T18:39:48.963Z,9.54
2022-10-19T18:42:17.825Z,9.65
2022-10-19T18:44:47.305Z,9.64
2022-10-19T18:47:15.044Z,9.56
2022-10-19T18:49:42.696Z,9.48
2022-10-19T18:52:11.865Z,9.39
2022-10-19T18:54:39.790Z,9.44
2022-10-19T18:57:07.565Z,9.32
2022-10-19T18:59:35.303Z,9.30
2022-10-19T19:02:03.074Z,9.34
2022-10-19T19:04:31.112Z,9.26
2022-10-19T19:06:58.787Z,9.33
2022-10-19T19:09:27.814Z,9.32
2022-10-19T19:11:58.030Z,9.29
2022-10-19T19:14:26.594Z,9.06
2022-10-19T19:16:54.380Z,9.12
2022-10-19T19:19:24.412Z,9.11
2022-10-19T19:21:52.222Z,9.07
2022-10-19T19:24:21.883Z,8.89
2022-10-19T19:26:52.702Z,8.85
2022-10-19T19:29:22.045Z,8.62
2022-10-19T19:31:49.810Z,8.44
2022-10-19T19:34:17.721Z,8.37
2022-10-19T19:36:48.053Z,8.26
2022-10-19T19:39:18.554Z,8.07
2022-10-19T19:41:46.812Z,8.14
2022-10-19T19:44:15.954Z,8.11
2022-10-19T19:46:43.696Z,7.99
2022-10-19T19:49:11.920Z,7.79
2022-10-19T19:51:39.625Z,7.89
2022-10-19T19:54:07.258Z,7.85
2022-10-19T19:56:36.761Z,7.78
2022-10-19T19:59:04.499Z,7.86
2022-10-19T20:01:34.365Z,7.84
2022-10-19T20:06:37.439Z,7.89
2022-10-19T20:09:06.297Z,7.94
2022-10-19T20:11:37.156Z,8.07
2022-10-19T20:14:07.451Z,8.02
2022-10-19T20:16:36.983Z,7.93
2022-10-19T20:19:07.549Z,7.94
2022-10-19T20:21:35.428Z,7.87
2022-10-19T20:24:03.247Z,7.78
2022-10-19T20:26:31.218Z,7.72
2022-10-19T20:28:59.486Z,7.62
2022-10-19T20:33:57.457Z,7.52
2022-10-19T20:36:26.970Z,7.47
2022-10-19T20:38:56.298Z,7.22
2022-10-19T20:41:26.419Z,7.33
2022-10-19T20:43:54.970Z,7.40
2022-10-19T20:46:24.347Z,7.35
2022-10-19T20:48:52.998Z,7.31
2022-10-19T20:51:27.522Z,7.35
2022-10-19T20:53:59.934Z,7.33
2022-10-19T20:56:29.016Z,7.42
2022-10-19T20:58:57.907Z,7.31
2022-10-19T21:01:26.158Z,7.37
2022-10-19T21:03:56.587Z,7.25
2022-10-19T21:06:27.017Z,7.30
2022-10-19T21:08:54.814Z,7.20
2022-10-19T21:11:24.372Z,7.20
2022-10-19T21:13:54.496Z,7.06
2022-10-19T21:16:24.451Z,6.91
2022-10-19T21:18:52.311Z,6.75
2022-10-19T21:21:22.263Z,6.93
2022-10-19T21:23:54.152Z,6.96
2022-10-19T21:26:22.053Z,7.05
2022-10-19T21:28:53.000Z,7.06
2022-10-19T21:31:21.798Z,7.05
2022-10-19T21:33:50.814Z,7.06
2022-10-19T21:36:19.806Z,7.06
2022-10-19T21:38:48.345Z,7.06
2022-10-19T21:41:22.280Z,7.05
2022-10-19T21:43:53.318Z,7.05
2022-10-19T21:46:22.731Z,7.01
2022-10-19T21:48:50.710Z,6.98
2022-10-19T21:51:24.968Z,6.97
2022-10-19T21:53:52.760Z,6.93
2022-10-19T21:56:21.851Z,7.04
2022-10-19T21:58:50.684Z,7.10
2022-10-19T22:01:20.070Z,7.06
2022-10-19T22:03:47.922Z,6.78
2022-10-19T22:06:15.870Z,6.97
2022-10-19T22:08:49.193Z,7.02
2022-10-19T22:11:17.053Z,7.03
2022-10-19T22:13:46.534Z,7.01
2022-10-19T22:16:16.204Z,6.94
2022-10-19T22:18:43.902Z,6.97
2022-10-19T22:21:14.395Z,6.84
2022-10-19T22:23:42.534Z,6.94
2022-10-19T22:26:14.987Z,7.01
2022-10-19T22:28:43.082Z,6.90
2022-10-19T22:31:13.329Z,6.92
2022-10-19T22:33:41.691Z,6.87
2022-10-19T22:36:11.279Z,6.80
2022-10-19T22:38:38.956Z,6.81
2022-10-19T22:41:06.671Z,6.84
2022-10-19T22:43:34.475Z,6.86
2022-10-19T22:46:02.267Z,6.84
2022-10-19T22:48:31.327Z,6.82
2022-10-19T22:50:58.973Z,6.81
2022-10-19T22:53:26.791Z,6.78
2022-10-19T22:55:54.516Z,6.80
2022-10-19T22:58:22.285Z,6.78
2022-10-19T23:01:03.457Z,6.80
2022-10-19T23:03:32.851Z,6.78
2022-10-19T23:06:00.574Z,6.76
2022-10-19T23:08:29.157Z,6.75
2022-10-19T23:10:57.045Z,6.70
2022-10-19T23:13:25.262Z,6.68
2022-10-19T23:15:52.960Z,6.70
2022-10-19T23:18:20.765Z,6.69
2022-10-19T23:20:57.395Z,6.66
2022-10-19T23:23:25.725Z,6.58
2022-10-19T23:26:01.451Z,6.59
2022-10-19T23:28:29.567Z,6.60
2022-10-19T23:30:58.485Z,6.59
2022-10-19T23:33:27.107Z,6.48
2022-10-19T23:35:56.147Z,6.46
2022-10-19T23:38:23.896Z,6.46
2022-10-19T23:40:51.639Z,6.39
2022-10-19T23:43:19.422Z,6.32
2022-10-19T23:45:47.068Z,6.02
2022-10-19T23:48:14.777Z,6.01
2022-10-19T23:50:42.576Z,5.95
2022-10-19T23:53:11.703Z,6.03
2022-10-19T23:55:39.536Z,6.18
2022-10-19T23:58:07.323Z,6.04
